Flight Track Log - Related Links

Times and Time Zones

All times are in EST time to prevent confusion due to time zone crossing. See the UAL3787 flight status page for this flight to view local times or setup timezone preferences in your user account.

Time Position Orientation Groundspeed Altitude Reporting Facility
EST Latitude Longitude Course Direction KTS MPH feet Rate Location/Type
Tue 08:15:45 AM 42.0167 -87.9667 74° East 182 209 2,500  Level Chicago TRACON
Tue 08:16:51 AM 42.0667 -88.0167 323° Northwest 251 289 4,900 2,371 Climbing Chicago TRACON
Tue 08:17:49 AM 42.1264 -88.0486 338° Northwest 265 305 7,400 2,800 Climbing Chicago Center
Tue 08:18:51 AM 42.2053 -88.0506 359° North 283 326 10,500 3,048 Climbing Chicago Center
Tue 08:19:53 AM 42.3025 -88.0439 North 291 335 13,700 2,032 Climbing Chicago Center
Tue 08:20:55 AM 42.4042 -88.0031 17° North 358 412 14,700 1,452 Climbing Chicago Center
Tue 08:21:00 AM 42.0343 -87.1242 74° East  Level Estimated
Tue 08:21:57 AM 42.5108 -87.9617 16° North 394 453 16,700  Level Chicago Center
Tue 08:22:59 AM 42.6197 -87.9169 17° North 407 468 18,600 2,032 Climbing Chicago Center
Tue 08:24:01 AM 42.7183 -87.8444 28° Northeast 416 479 20,900 2,129 Climbing Chicago Center
Tue 08:25:03 AM 42.7611 -87.7000 68° East 414 476 23,000 1,016 Climbing Chicago Center
Tue 08:26:05 AM 42.7994 -87.5431 72° East 434 499 23,000  Level Chicago Center
Tue 08:27:07 AM 42.8442 -87.3661 71° East 465 535 23,000  Level Chicago Center
Tue 08:28:09 AM 42.8872 -87.2003 70° East 467 537 23,000  Level Chicago Center
Tue 08:29:11 AM 42.9364 -87.0042 71° East 459 528 23,000  Level Chicago Center
Tue 08:30:13 AM 42.9725 -86.8339 74° East 465 535 23,000  Level Chicago Center
Tue 08:31:15 AM 43.0042 -86.6483 77° East 493 567 23,000  Level Chicago Center
Tue 08:32:17 AM 43.0378 -86.4608 76° East 507 583 23,000  Level Chicago Center
Tue 08:33:19 AM 43.0697 -86.2808 76° East 493 567 23,000  Level Chicago Center
Tue 08:34:21 AM 43.1014 -86.0992 77° East 485 558 23,000  Level Chicago Center
Tue 08:35:23 AM 43.1331 -85.9106 77° East 486 559 23,000  Level Chicago Center
Tue 08:36:25 AM 43.1639 -85.7272 77° East 488 562 23,000  Level Chicago Center
Tue 08:37:27 AM 43.1950 -85.5442 77° East 493 567 23,000  Level Chicago Center
Tue 08:38:29 AM 43.2317 -85.3231 77° East 496 571 23,000  Level Chicago Center
Tue 08:39:31 AM 43.2325 -85.1394 90° East 490 564 23,000  Level Chicago Center
Tue 08:40:33 AM 43.1992 -84.9597 104° East 489 563 23,000 -435 Level Chicago Center
Tue 08:41:35 AM 43.1653 -84.7819 105° East 486 559 22,100 -1,210 Descending Chicago Center
Tue 08:42:37 AM 43.1347 -84.6158 104° East 461 531 20,500 -1,694 Descending Chicago Center
Tue 08:43:39 AM 43.1044 -84.4572 105° East 438 504 18,600 -1,790 Descending Chicago Center
Tue 08:44:41 AM 43.0689 -84.2750 105° East 420 483 16,800 -1,500 Descending Chicago Center
Tue 08:45:43 AM 43.0336 -84.1514 111° Southeast 361 415 15,500 -1,561 Descending Chicago Center
Tue 08:46:44 AM 42.9836 -84.0464 123° Southeast 312 359 13,600 -1,933 Descending Cleveland Center
Tue 08:47:13 AM 42.9603 -83.9931 121° Southeast 321 369 12,600 -2,129 Descending Cleveland Center
Tue 08:47:15 AM 42.9589 -83.9911 134° Southeast 314 361 12,500 -581 Descending Cleveland Center
Tue 08:48:15 AM 42.9133 -83.8939 123° Southeast 313 360 12,000 -411 Descending Cleveland Center
Tue 08:48:28 AM 42.8994 -83.8708 129° Southeast 311 358 12,000  Level Cleveland Center
Tue 08:49:17 AM 42.8644 -83.7950 122° Southeast 314 361 12,000  Level Cleveland Center
Tue 08:49:18 AM 42.8639 -83.7942 132° Southeast 311 358 12,000 -581 Level Cleveland Center
Tue 08:50:19 AM 42.8058 -83.7161 135° Southeast 306 352 11,400 -904 Descending Cleveland Center
Tue 08:50:31 AM 42.7869 -83.7061 159° South 292 336 10,900 -2,000 Descending Cleveland Center
Tue 08:51:25 AM 42.7189 -83.6675 157° South 279 321 9,200 -1,018 Descending Cleveland Center
Tue 08:52:23 AM 42.6681 -83.6208 146° Southeast 291 335 9,000 -194 Descending Cleveland Center
Tue 08:52:27 AM 42.6586 -83.6075 134° Southeast 284 327 9,000 -1,220 Level Cleveland Center
Tue 08:53:22 AM 42.6100 -83.5350 132° Southeast 280 322 7,800 -1,138 Descending Cleveland Center
Tue 08:53:25 AM 42.6150 -83.5422 313° West 282 325 7,900 -1,569 Climbing Cleveland Center
Tue 08:54:27 AM 42.5514 -83.4511 133° Southeast 277 319 6,100 -1,810 Descending Cleveland Center
Tue 08:54:28 AM 42.5478 -83.4467 138° Southeast 275 316 6,000 -214 Descending Cleveland Center
Tue 08:55:23 AM 42.5028 -83.3781 132° Southeast 271 312 5,900 -197 Descending Cleveland Center
Tue 08:55:29 AM 42.5003 -83.3747 135° Southeast 274 315 5,800 -1,065 Descending Cleveland Center
Tue 08:56:25 AM 42.4494 -83.3083 136° Southeast 247 284 4,800 -968 Descending Cleveland Center
Tue 08:56:31 AM 42.4481 -83.3069 144° Southeast 262 302 4,800 -537 Level Cleveland Center
Tue 08:57:32 AM 42.3914 -83.3000 175° South 182 209 4,200 -787 Descending Cleveland Center
Tue 08:58:33 AM 42.3411 -83.3014 181° South 171 197 3,200 -871 Descending Cleveland Center
Tue 08:58:34 AM 42.3453 -83.3003 11° North 181 208 3,300 -689 Climbing Cleveland Center
Tue 08:59:34 AM 42.2936 -83.3175 194° South 170 196 2,500 -677 Descending Cleveland Center
Tue 08:59:36 AM 42.2989 -83.3117 39° Northeast 171 197 2,600 -1,000 Climbing Cleveland Center
Tue 09:00:34 AM 42.2583 -83.3433 210° Southwest 124 143 1,500 -968 Descending Cleveland Center
Tue 09:00:38 AM 42.2611 -83.3394 46° Northeast 158 182 1,600 -545 Climbing Cleveland Center
Tue 09:01:40 AM 42.2311 -83.3611 208° Southwest 134 154 900 -677 Descending Cleveland Center

Login

Don't have an account? Register now (free) for customized features, flight alerts, and more!